Time,TemperatureF,DewpointF,PressureIn,WindDirection,WindDirectionDegrees,WindSpeedMPH,WindSpeedGustMPH,Humidity,HourlyPrecipIn,Conditions,Clouds,dailyrainin,SolarRadiationWatts/m^2,SoftwareType,DateUTC
2013-08-26 00:03:00,84.0,72.0,-100.00,SSW,204,4.0,8.0,68,0.00,,,0.00,0.000000,,2013-08-26 05:03:00,
2013-08-26 00:44:00,82.0,72.0,-100.00,SSW,207,4.0,10.0,72,0.00,,,0.00,0.000000,,2013-08-26 05:44:00,
2013-08-26 00:52:00,82.0,72.0,-100.00,SSW,207,4.0,10.0,72,0.00,,,0.00,0.000000,,2013-08-26 05:52:00,
2013-08-26 01:02:00,82.0,72.0,-100.00,SSW,207,4.0,10.0,72,0.00,,,0.00,0.000000,,2013-08-26 06:02:00,
2013-08-26 01:42:00,82.0,73.0,-100.00,SSW,207,4.0,10.0,74,0.00,,,0.00,0.000000,,2013-08-26 06:42:00,
2013-08-26 01:52:00,82.0,73.0,-100.00,SSW,207,4.0,10.0,74,0.00,,,0.00,0.000000,,2013-08-26 06:52:00,
2013-08-26 02:02:00,82.0,73.0,-100.00,SSW,207,4.0,10.0,74,0.00,,,0.00,0.000000,,2013-08-26 07:02:00,
2013-08-26 02:42:00,81.0,73.0,-100.00,SW,218,4.0,10.0,76,0.00,,,0.00,0.000000,,2013-08-26 07:42:00,
2013-08-26 02:52:00,81.0,73.0,-100.00,SW,218,4.0,10.0,76,0.00,,,0.00,0.000000,,2013-08-26 07:52:00,
2013-08-26 03:02:00,81.0,73.0,-100.00,SW,218,4.0,10.0,76,0.00,,,0.00,0.000000,,2013-08-26 08:02:00,
2013-08-26 03:42:00,80.0,73.0,-100.00,SW,220,4.0,9.0,78,0.00,,,0.00,0.000000,,2013-08-26 08:42:00,
2013-08-26 03:52:00,80.0,73.0,-100.00,SW,220,4.0,9.0,78,0.00,,,0.00,0.000000,,2013-08-26 08:52:00,
2013-08-26 04:02:00,80.0,73.0,-100.00,SW,220,4.0,9.0,78,0.00,,,0.00,0.000000,,2013-08-26 09:02:00,
2013-08-26 04:43:00,80.0,73.0,-100.00,SW,214,4.0,10.0,79,0.00,,,0.00,0.000000,,2013-08-26 09:43:00,
2013-08-26 04:54:00,80.0,73.0,-100.00,SW,214,4.0,10.0,79,0.00,,,0.00,0.000000,,2013-08-26 09:54:00,
2013-08-26 05:03:00,80.0,73.0,-100.00,SW,214,4.0,10.0,79,0.00,,,0.00,0.000000,,2013-08-26 10:03:00,
2013-08-26 05:42:00,80.0,73.0,-100.00,SSW,213,4.0,8.0,80,0.00,,,0.00,0.000000,,2013-08-26 10:42:00,
2013-08-26 05:52:00,80.0,73.0,-100.00,SSW,213,4.0,8.0,80,0.00,,,0.00,0.000000,,2013-08-26 10:52:00,
2013-08-26 06:02:00,80.0,73.0,-100.00,SSW,213,4.0,8.0,80,0.00,,,0.00,0.000000,,2013-08-26 11:02:00,
2013-08-26 06:42:00,79.0,73.0,-100.00,WSW,254,2.0,8.0,81,0.00,,,0.00,0.000000,,2013-08-26 11:42:00,
2013-08-26 06:52:00,79.0,73.0,-100.00,WSW,254,2.0,8.0,81,0.00,,,0.00,0.000000,,2013-08-26 11:52:00,
2013-08-26 07:01:00,79.0,73.0,-100.00,WSW,254,2.0,8.0,81,0.00,,,0.00,0.000000,,2013-08-26 12:01:00,
2013-08-26 07:42:00,76.0,72.0,-100.00,WSW,252,0.0,3.0,88,0.00,,,0.00,2.000000,,2013-08-26 12:42:00,
2013-08-26 07:52:00,76.0,72.0,-100.00,WSW,252,0.0,3.0,88,0.00,,,0.00,2.000000,,2013-08-26 12:52:00,
2013-08-26 08:02:00,76.0,72.0,-100.00,WSW,252,0.0,3.0,88,0.00,,,0.00,2.000000,,2013-08-26 13:02:00,
2013-08-26 08:42:00,78.0,73.0,-100.00,SSE,150,1.0,4.0,85,0.00,,,0.00,29.000000,,2013-08-26 13:42:00,
2013-08-26 08:52:00,78.0,73.0,-100.00,SSE,150,1.0,4.0,85,0.00,,,0.00,29.000000,,2013-08-26 13:52:00,
2013-08-26 09:02:00,78.0,73.0,-100.00,SSE,150,1.0,4.0,85,0.00,,,0.00,29.000000,,2013-08-26 14:02:00,
2013-08-26 09:42:00,81.0,74.0,-100.00,SSW,199,3.0,7.0,79,0.00,,,0.00,95.000000,,2013-08-26 14:42:00,
2013-08-26 09:52:00,81.0,74.0,-100.00,SSW,199,3.0,7.0,79,0.00,,,0.00,95.000000,,2013-08-26 14:52:00,
2013-08-26 10:01:00,81.0,74.0,-100.00,SSW,199,3.0,7.0,79,0.00,,,0.00,95.000000,,2013-08-26 15:01:00,
2013-08-26 10:06:00,83.0,73.0,-100.00,SW,220,4.0,9.0,71,0.00,,,0.00,216.000000,,2013-08-26 15:06:00,
2013-08-26 10:59:00,83.0,73.0,-100.00,SW,220,4.0,9.0,71,0.00,,,0.00,216.000000,,2013-08-26 15:59:00,
2013-08-26 11:06:00,85.0,73.0,-100.00,SSW,207,3.0,10.0,67,0.00,,,0.00,202.000000,,2013-08-26 16:06:00,
2013-08-26 11:48:00,85.0,73.0,-100.00,SSW,207,3.0,10.0,67,0.00,,,0.00,202.000000,,2013-08-26 16:48:00,
2013-08-26 11:59:00,85.0,73.0,-100.00,SSW,207,3.0,10.0,67,0.00,,,0.00,202.000000,,2013-08-26 16:59:00,
2013-08-26 12:43:00,87.0,74.0,-100.00,SE,146,4.0,7.0,65,0.00,,,0.00,308.000000,,2013-08-26 17:43:00,
2013-08-26 12:53:00,87.0,74.0,-100.00,SE,146,4.0,7.0,65,0.00,,,0.00,308.000000,,2013-08-26 17:53:00,
2013-08-26 13:01:00,87.0,74.0,-100.00,SE,146,4.0,7.0,65,0.00,,,0.00,308.000000,,2013-08-26 18:01:00,
2013-08-26 13:42:00,90.0,74.0,-100.00,SE,139,4.0,12.0,59,0.00,,,0.00,536.000000,,2013-08-26 18:42:00,
2013-08-26 13:52:00,90.0,74.0,-100.00,SE,139,4.0,12.0,59,0.00,,,0.00,536.000000,,2013-08-26 18:52:00,
2013-08-26 14:01:00,90.0,74.0,-100.00,SE,139,4.0,12.0,59,0.00,,,0.00,536.000000,,2013-08-26 19:01:00,
2013-08-26 14:42:00,90.0,72.0,-100.00,SSE,148,4.0,13.0,55,0.00,,,0.00,482.000000,,2013-08-26 19:42:00,
2013-08-26 14:52:00,90.0,72.0,-100.00,SSE,148,4.0,13.0,55,0.00,,,0.00,482.000000,,2013-08-26 19:52:00,
2013-08-26 15:02:00,90.0,72.0,-100.00,SSE,148,4.0,13.0,55,0.00,,,0.00,482.000000,,2013-08-26 20:02:00,
2013-08-26 15:43:00,88.0,76.0,-100.00,SE,128,3.0,11.0,68,0.00,,,0.00,237.000000,,2013-08-26 20:43:00,
2013-08-26 15:52:00,88.0,76.0,-100.00,SE,128,3.0,11.0,68,0.00,,,0.00,237.000000,,2013-08-26 20:52:00,
2013-08-26 16:01:00,88.0,76.0,-100.00,SE,128,3.0,11.0,68,0.00,,,0.00,237.000000,,2013-08-26 21:01:00,
2013-08-26 16:06:00,91.0,75.0,-100.00,East,87,3.0,9.0,60,0.00,,,0.00,343.000000,,2013-08-26 21:06:00,
2013-08-26 16:44:00,91.0,75.0,-100.00,East,87,3.0,9.0,60,0.00,,,0.00,343.000000,,2013-08-26 21:44:00,
2013-08-26 16:55:00,91.0,75.0,-100.00,East,87,3.0,9.0,60,0.00,,,0.00,343.000000,,2013-08-26 21:55:00,
2013-08-26 17:42:00,95.0,73.0,-100.00,South,174,3.0,8.0,49,0.00,,,0.00,428.000000,,2013-08-26 22:42:00,
2013-08-26 17:53:00,95.0,73.0,-100.00,South,174,3.0,8.0,49,0.00,,,0.00,428.000000,,2013-08-26 22:53:00,
2013-08-26 18:03:00,95.0,73.0,-100.00,South,174,3.0,8.0,49,0.00,,,0.00,428.000000,,2013-08-26 23:03:00,
2013-08-26 18:42:00,96.0,73.0,-100.00,SSE,162,3.0,12.0,48,0.00,,,0.00,276.000000,,2013-08-26 23:42:00,
2013-08-26 18:52:00,96.0,73.0,-100.00,SSE,162,3.0,12.0,48,0.00,,,0.00,276.000000,,2013-08-26 23:52:00,
2013-08-26 19:01:00,96.0,73.0,-100.00,SSE,162,3.0,12.0,48,0.00,,,0.00,276.000000,,2013-08-27 00:01:00,
2013-08-26 19:42:00,89.0,72.0,-100.00,SSE,147,2.0,10.0,57,0.00,,,0.00,44.000000,,2013-08-27 00:42:00,
2013-08-26 19:52:00,89.0,72.0,-100.00,SSE,147,2.0,10.0,57,0.00,,,0.00,44.000000,,2013-08-27 00:52:00,
2013-08-26 20:02:00,89.0,72.0,-100.00,SSE,147,2.0,10.0,57,0.00,,,0.00,44.000000,,2013-08-27 01:02:00,
2013-08-26 20:42:00,87.0,72.0,-100.00,SE,146,1.0,5.0,62,0.00,,,0.00,4.000000,,2013-08-27 01:42:00,
2013-08-26 20:52:00,87.0,72.0,-100.00,SE,146,1.0,5.0,62,0.00,,,0.00,4.000000,,2013-08-27 01:52:00,
2013-08-26 21:02:00,87.0,72.0,-100.00,SE,146,1.0,5.0,62,0.00,,,0.00,4.000000,,2013-08-27 02:02:00,
2013-08-26 21:43:00,83.0,72.0,-100.00,NE,44,6.0,15.0,69,0.00,,,0.00,0.000000,,2013-08-27 02:43:00,
2013-08-26 21:52:00,83.0,72.0,-100.00,NE,44,6.0,15.0,69,0.00,,,0.00,0.000000,,2013-08-27 02:52:00,
2013-08-26 22:02:00,83.0,72.0,-100.00,NE,44,6.0,15.0,69,0.00,,,0.00,0.000000,,2013-08-27 03:02:00,
2013-08-26 22:06:00,75.0,69.0,-100.00,ENE,63,3.0,11.0,83,0.00,,,0.00,0.000000,,2013-08-27 03:06:00,
2013-08-26 22:45:00,75.0,69.0,-100.00,ENE,63,3.0,11.0,83,0.00,,,0.00,0.000000,,2013-08-27 03:45:00,
2013-08-26 22:58:00,75.0,69.0,-100.00,ENE,63,3.0,11.0,83,0.00,,,0.00,0.000000,,2013-08-27 03:58:00,
2013-08-26 23:47:00,73.0,70.0,-100.00,ESE,106,2.0,5.0,90,0.00,,,0.00,0.000000,,2013-08-27 04:47:00,
2013-08-26 23:54:00,73.0,70.0,-100.00,ESE,106,2.0,5.0,90,0.00,,,0.00,0.000000,,2013-08-27 04:54:00,